Aberdeen, SD

8:58 AM CDT on May 30, 2015 (GMT -0500)
Aberdeen Regional | | Change Station
CLOSE
Current Station
Airport
Location: Aberdeen,
Elevation: 1299 ft
Nearby Weather Stations
Active Advisory: Flood Warning

Elev 1299 ft 45.44 °N, 98.41 °W | Updated 5 minutes ago

Clear
Clear
43 °F
Feels Like 36 °F
N
13
Wind Variable Wind from NNE

Today
High -- | Low -- °F
--% Chance of Precip.
Yesterday
High -- | Low -- °F
Precip. -- in
5:49 AM 9:13 PM
Waxing Gibbous, 90% visible
Pressure 30.41 in
Visibility 10.0 miles
Clouds Clear
Windchill 36 °F
Dew Point 31 °F
Humidity 62%
Rainfall 0.00 in
Snow Depth Not available.
UV 3 out of 12
Pollen 8.30 out of 12
Air Quality Not available.
Flu Activity Sporadic
METAR KABR 301353Z AUTO 03011KT 10SM CLR 06/M01 A3039 RMK AO2 SLP296 T00611006

More Conditions Fewer Conditions

Pressure 30.41 in
Visibility 10.0 miles
Clouds Clear
Windchill 36 °F
Dew Point 31 °F
Humidity 62%
Rainfall 0.00 in
Snow Depth Not available.
UV 3 out of 12
Pollen 8.30 out of 12
Air Quality Not available.
Flu Activity Sporadic
METAR KABR 301353Z AUTO 03011KT 10SM CLR 06/M01 A3039 RMK AO2 SLP296 T00611006

More Conditions Fewer Conditions

10-Day Weather Forecast

Almanac

Astronomy

May. 30, 2015 Rise Set
Actual Time
Civil Twilight
Nautical Twilight
Astronomical Twilight
Moon
Length of Visible Light
Length of Day
Tomorrow will be .
, % of the Moon is Illuminated

Today's Extremes

State Highs State Lows

Community

WunderPhotos

Upload Photos

1,825,510 photos uploaded!

WunderBlogs® & News

Nearby

Air Quality

  Air Quality AQ Index Pollutant
Not available.

Snow Depth

Station Depth Elevation

Earthquake Activity

City Distance Mag. Time & Date
Minimum magnitude displayed is 2.5.

Coastal Water Temperatures

Place Temperature

Stations

Nearby Weather Stations

Station Location Temp. Windchill Dew Point Humidity Wind Precip. Elev Updated Type
                   
Flood Warning
Statement as of 10:20 AM CDT on May 29, 2015

The Flood Warning continues for
the James River near Columbia
* until further notice...
* at 09am Friday the stage was 13.8 feet...
* minor flooding is occurring and minor flooding is forecast...
* flood stage is 13.0 feet...
* forecast... the river rose above flood stage and will continue
rising to near 14.5 feet by early Friday morning. Additional rises
may be possible thereafter.
* At 15.0 feet... significant amounts of agricultural lands are
flooded.




Lat... Lon 4594 9820 4563 9837 4552 9830 4552 9818
4563 9827 4594 9813